Kezdőlap
METAR-TAF:

METAR-TAF

Repülőterek :

Nukus, Üzbegisztán

földrajzi szélesség: 42-28-48N, földrajzi hosszúság: 059-37-48E, magasság: 77 m

Jelenlegi meteorológiai megfigyelések

A jelentés 58 perccel ezelõtt készült, 20:00 UTC
Északi szél 2 kt
Hőmérséklet -6°C
Páratartalom 93%
Légköri nyomás 1024 hPa
Látótávolság 10 km, vagy több
felhőtlen 1500 m magasságban, és nincs gomolyfelhõ

METAR: UTNN 102000Z 01002KT CAVOK M06/M07 Q1024 R33/CLRD60 NOSIG

Idő: 01:58 (20:58 UTC)

Előrejelzés

A jelentés 3 órával és 58 perccel ezelõtt készült, 17:00 UTC
Az előrejelzés 10-én 18 óra UTC és 11-én 18 óra UTC között érvényes
Különbözõ irányokból fújó szél 4 kt
Látótávolság 10 km, vagy több
felhőtlen 1500 m magasságban, és nincs gomolyfelhõ
11-én 06 óra UTC és 11-én 14 óra UTC között ideiglenes
Kelet-északkeleti szél 10 kt széllökések: 20 kt

TAF: UTNN 101700Z 1018/1118 VRB04KT CAVOK TEMPO 1106/1114 06010G20KT

Meteorológiai megfigyelések és előrejelzések több, mint 4000 repülőtéren (METAR és TAF jelentéseket).

A térképen piros és sárga pontok jelzik az elérhető meteorológiai állomásokat.

Mozgassa az egeret a pont fölött, hogy megjelenjen az állomás neve.

Azután kattintson az időjárási megfigyelések és előrejelzések megtekintéséhez.

A térkép megváltoztatása: kattintson a fekete keresztel jelölt zöld gombra ráközelítéshez, a vonallal jelölt zöld gombra távolításhoz, vagy a zöld nyilakra a szomszédos térképek eléréséhez.


METAR-TAF: